Time;durP1;ratioP1;P1;durP2;ratioP2;P2;SDS_P1;SDS_P2;PMS_P1;PMS_P2;Temp;Humidity;BMP_temperature;BMP_pressure;BME280_temperature;BME280_humidity;BME280_pressure;Samples;Min_cycle;Max_cycle;Signal;HPM_P1;HPM_P2
2022/07/11 00:00:51;;;;;;;0.00;0.00;;;;;;;;;;4929831;29;20474;-67
2022/07/11 00:03:16;;;;;;;0.00;0.00;;;;;;;;;;4930363;29;20351;-67
2022/07/11 00:05:42;;;;;;;0.00;0.00;;;;;;;;;;4930095;29;20035;-67
2022/07/11 00:08:07;;;;;;;0.00;0.00;;;;;;;;;;4930207;29;20032;-67
2022/07/11 00:10:32;;;;;;;0.00;0.00;;;;;;;;;;4930898;29;20028;-68
2022/07/11 00:12:57;;;;;;;0.00;0.00;;;;;;;;;;4930325;29;20054;-67
2022/07/11 00:15:23;;;;;;;0.00;0.00;;;;;;;;;;4929927;29;20031;-68
2022/07/11 00:17:48;;;;;;;0.00;0.00;;;;;;;;;;4930740;29;20035;-68
2022/07/11 00:20:13;;;;;;;0.00;0.00;;;;;;;;;;4928525;29;20473;-68
2022/07/11 00:22:38;;;;;;;0.00;0.00;;;;;;;;;;4930436;29;20074;-68
2022/07/11 00:25:04;;;;;;;0.00;0.00;;;;;;;;;;4930281;29;20028;-67
2022/07/11 00:27:29;;;;;;;0.00;0.00;;;;;;;;;;4930381;29;20031;-68
2022/07/11 00:29:54;;;;;;;0.00;0.00;;;;;;;;;;4928501;29;20028;-68
2022/07/11 00:32:19;;;;;;;0.00;0.00;;;;;;;;;;4930339;29;20035;-68
2022/07/11 00:34:44;;;;;;;0.00;0.00;;;;;;;;;;4929881;29;20046;-68
2022/07/11 00:37:10;;;;;;;0.00;0.00;;;;;;;;;;4929218;29;20552;-67
2022/07/11 00:39:35;;;;;;;0.00;0.00;;;;;;;;;;4929892;29;20186;-67
2022/07/11 00:42:00;;;;;;;4.47;4.25;;;;;;;;;;4929757;29;20089;-67
2022/07/11 00:44:25;;;;;;;0.00;0.00;;;;;;;;;;4929384;29;20683;-67
2022/07/11 00:46:51;;;;;;;0.00;0.00;;;;;;;;;;4930254;29;20036;-67
2022/07/11 00:49:16;;;;;;;0.00;0.00;;;;;;;;;;4929804;29;20024;-67
2022/07/11 00:51:41;;;;;;;0.00;0.00;;;;;;;;;;4930186;29;20047;-67
2022/07/11 00:54:08;;;;;;;0.00;0.00;;;;;;;;;;4929590;29;20437;-67
2022/07/11 00:56:33;;;;;;;0.00;0.00;;;;;;;;;;4930270;29;20714;-66
2022/07/11 00:58:59;;;;;;;0.00;0.00;;;;;;;;;;4929323;29;20038;-67
2022/07/11 01:01:24;;;;;;;0.00;0.00;;;;;;;;;;4930041;29;20078;-67
2022/07/11 01:03:49;;;;;;;0.00;0.00;;;;;;;;;;4929863;29;20032;-67
2022/07/11 01:06:14;;;;;;;0.00;0.00;;;;;;;;;;4928673;29;20036;-67
2022/07/11 01:08:40;;;;;;;0.00;0.00;;;;;;;;;;4929541;29;20047;-66
2022/07/11 01:11:12;;;;;;;0.00;0.00;;;;;;;;;;4929516;29;20050;-67
2022/07/11 01:13:37;;;;;;;0.00;0.00;;;;;;;;;;4927907;29;20054;-66
2022/07/11 01:16:13;;;;;;;0.00;0.00;;;;;;;;;;4929232;29;20035;-67
2022/07/11 01:18:49;;;;;;;0.00;0.00;;;;;;;;;;4929940;29;20107;-67
2022/07/11 01:21:34;;;;;;;0.00;0.00;;;;;;;;;;4929081;29;20052;-67
2022/07/11 01:24:01;;;;;;;0.00;0.00;;;;;;;;;;4928576;29;20027;-68
2022/07/11 01:26:26;;;;;;;0.00;0.00;;;;;;;;;;4930087;29;20428;-68
2022/07/11 01:28:52;;;;;;;0.00;0.00;;;;;;;;;;4929638;29;20039;-67
2022/07/11 01:31:18;;;;;;;0.00;0.00;;;;;;;;;;4929046;29;20027;-68
2022/07/11 01:33:43;;;;;;;0.00;0.00;;;;;;;;;;4929442;29;20031;-68
2022/07/11 01:36:08;;;;;;;0.00;0.00;;;;;;;;;;4911524;29;20111;-68
2022/07/11 01:38:33;;;;;;;0.00;0.00;;;;;;;;;;4928657;29;20042;-68
2022/07/11 01:41:02;;;;;;;0.00;0.00;;;;;;;;;;4926733;29;20035;-66
2022/07/11 01:43:28;;;;;;;0.00;0.00;;;;;;;;;;4928930;29;20024;-66
2022/07/11 01:45:54;;;;;;;0.00;0.00;;;;;;;;;;4926755;29;20024;-67
2022/07/11 01:48:19;;;;;;;0.00;0.00;;;;;;;;;;4928062;29;20032;-67
2022/07/11 01:50:45;;;;;;;0.00;0.00;;;;;;;;;;4929238;29;20385;-67
2022/07/11 01:53:12;;;;;;;0.00;0.00;;;;;;;;;;4928776;29;20115;-68
2022/07/11 01:55:38;;;;;;;0.00;0.00;;;;;;;;;;4929927;29;20055;-66
2022/07/11 01:58:03;;;;;;;0.00;0.00;;;;;;;;;;4928631;29;20066;-68
2022/07/11 02:00:28;;;;;;;0.00;0.00;;;;;;;;;;4928601;29;20039;-68
2022/07/11 02:02:54;;;;;;;0.00;0.00;;;;;;;;;;4928880;29;20032;-66
2022/07/11 02:05:19;;;;;;;0.00;0.00;;;;;;;;;;4927710;29;20062;-66
2022/07/11 02:10:29;;;;;;;0.00;0.00;;;;;;;;;;4927668;29;20062;-65
2022/07/11 02:12:58;;;;;;;0.00;0.00;;;;;;;;;;4928515;29;20074;-65
2022/07/11 02:15:23;;;;;;;0.00;0.00;;;;;;;;;;4928682;29;20024;-66
2022/07/11 02:17:49;;;;;;;0.00;0.00;;;;;;;;;;4928495;29;20030;-66
2022/07/11 02:20:14;;;;;;;0.00;0.00;;;;;;;;;;4927365;29;20083;-67
2022/07/11 02:22:39;;;;;;;0.00;0.00;;;;;;;;;;4927838;29;20035;-66
2022/07/11 02:25:04;;;;;;;0.00;0.00;;;;;;;;;;4928277;29;20055;-66
2022/07/11 02:27:30;;;;;;;0.00;0.00;;;;;;;;;;4927234;29;20114;-67
2022/07/11 02:29:55;;;;;;;0.00;0.00;;;;;;;;;;4927798;29;20028;-67
2022/07/11 02:32:20;;;;;;;0.00;0.00;;;;;;;;;;4927534;29;20079;-65
2022/07/11 02:34:45;;;;;;;0.00;0.00;;;;;;;;;;4927763;29;20027;-65
2022/07/11 02:37:10;;;;;;;0.00;0.00;;;;;;;;;;4927398;29;20757;-65
2022/07/11 02:39:36;;;;;;;0.00;0.00;;;;;;;;;;4926780;29;20051;-66
2022/07/11 02:42:01;;;;;;;0.00;0.00;;;;;;;;;;4927470;29;20039;-65
2022/07/11 02:44:26;;;;;;;0.00;0.00;;;;;;;;;;4928121;29;20111;-66
2022/07/11 02:46:52;;;;;;;0.00;0.00;;;;;;;;;;4928046;29;20034;-66
2022/07/11 02:49:17;;;;;;;0.00;0.00;;;;;;;;;;4927490;29;21254;-67
2022/07/11 02:51:42;;;;;;;0.00;0.00;;;;;;;;;;4927735;29;20503;-67
2022/07/11 02:54:07;;;;;;;0.00;0.00;;;;;;;;;;4927624;29;20035;-67
2022/07/11 02:56:32;;;;;;;0.00;0.00;;;;;;;;;;4928415;29;20036;-66
2022/07/11 02:58:58;;;;;;;0.00;0.00;;;;;;;;;;4929037;29;20031;-67
2022/07/11 03:01:23;;;;;;;0.00;0.00;;;;;;;;;;4928283;29;20031;-66
2022/07/11 03:03:48;;;;;;;0.00;0.00;;;;;;;;;;4929081;29;20020;-67
2022/07/11 03:06:13;;;;;;;0.00;0.00;;;;;;;;;;4928712;29;20032;-67
2022/07/11 03:08:39;;;;;;;0.00;0.00;;;;;;;;;;4925737;29;20362;-66
2022/07/11 03:11:05;;;;;;;0.00;0.00;;;;;;;;;;4928789;29;20030;-66
2022/07/11 03:13:30;;;;;;;0.00;0.00;;;;;;;;;;4928075;29;20056;-67
2022/07/11 03:15:56;;;;;;;0.00;0.00;;;;;;;;;;4927762;29;20066;-67
2022/07/11 03:18:21;;;;;;;0.00;0.00;;;;;;;;;;4927425;29;20067;-65
2022/07/11 03:20:46;;;;;;;0.00;0.00;;;;;;;;;;4927301;29;20075;-67
2022/07/11 03:23:11;;;;;;;0.00;0.00;;;;;;;;;;4927033;29;20114;-67
2022/07/11 03:25:36;;;;;;;0.00;0.00;;;;;;;;;;4927933;29;20024;-68
2022/07/11 03:28:02;;;;;;;0.00;0.00;;;;;;;;;;4927437;29;20026;-67
2022/07/11 03:30:27;;;;;;;0.00;0.00;;;;;;;;;;4927123;29;20032;-70
2022/07/11 03:32:52;;;;;;;0.00;0.00;;;;;;;;;;4927737;29;20388;-68
2022/07/11 03:38:01;;;;;;;0.00;0.00;;;;;;;;;;4924674;29;20193;-68
2022/07/11 03:40:27;;;;;;;0.00;0.00;;;;;;;;;;4924455;29;20120;-68
2022/07/11 03:42:52;;;;;;;0.00;0.00;;;;;;;;;;4923488;29;20020;-68
2022/07/11 03:45:18;;;;;;;0.00;0.00;;;;;;;;;;4924921;29;20027;-67
2022/07/11 03:47:43;;;;;;;0.00;0.00;;;;;;;;;;4926674;29;20019;-63
2022/07/11 03:50:08;;;;;;;0.00;0.00;;;;;;;;;;4924229;29;20791;-67
2022/07/11 03:52:34;;;;;;;0.00;0.00;;;;;;;;;;4926603;29;20192;-67
2022/07/11 03:54:59;;;;;;;0.00;0.00;;;;;;;;;;4927047;29;20043;-67
2022/07/11 03:57:24;;;;;;;0.00;0.00;;;;;;;;;;4925640;29;20034;-66
2022/07/11 03:59:49;;;;;;;0.00;0.00;;;;;;;;;;4924080;29;20023;-67
2022/07/11 04:02:14;;;;;;;0.00;0.00;;;;;;;;;;4923478;29;20123;-67
2022/07/11 04:04:40;;;;;;;0.00;0.00;;;;;;;;;;4926425;29;20031;-68
2022/07/11 04:07:05;;;;;;;0.00;0.00;;;;;;;;;;4927246;29;20052;-66
2022/07/11 04:09:31;;;;;;;0.03;0.03;;;;;;;;;;4927276;29;20087;-66
2022/07/11 04:11:56;;;;;;;0.00;0.00;;;;;;;;;;4925577;29;21857;-68
2022/07/11 04:14:21;;;;;;;0.00;0.00;;;;;;;;;;4927967;29;20040;-67
2022/07/11 04:16:46;;;;;;;0.00;0.00;;;;;;;;;;4927933;29;20058;-66
2022/07/11 04:19:12;;;;;;;0.00;0.00;;;;;;;;;;4926362;29;20035;-66
2022/07/11 04:21:37;;;;;;;0.00;0.00;;;;;;;;;;4909367;29;20361;-66
2022/07/11 04:24:02;;;;;;;0.00;0.00;;;;;;;;;;4927696;29;20024;-66
2022/07/11 04:26:30;;;;;;;0.00;0.00;;;;;;;;;;4927532;29;20055;-66
2022/07/11 04:28:55;;;;;;;0.00;0.00;;;;;;;;;;4925253;29;20024;-67
2022/07/11 04:31:20;;;;;;;0.00;0.00;;;;;;;;;;4924610;29;20023;-65
2022/07/11 04:33:45;;;;;;;0.00;0.00;;;;;;;;;;4927512;29;20621;-66
2022/07/11 04:36:11;;;;;;;0.00;0.00;;;;;;;;;;4925758;29;20039;-66
2022/07/11 04:38:36;;;;;;;0.00;0.00;;;;;;;;;;4926132;29;20291;-67
2022/07/11 04:41:01;;;;;;;0.00;0.00;;;;;;;;;;4925353;29;20028;-65
2022/07/11 04:43:26;;;;;;;0.00;0.00;;;;;;;;;;4928796;29;20306;-66
2022/07/11 04:45:51;;;;;;;0.10;0.10;;;;;;;;;;4927656;29;21006;-68
2022/07/11 04:48:17;;;;;;;0.00;0.00;;;;;;;;;;4924177;29;20082;-68
2022/07/11 04:50:42;;;;;;;0.00;0.00;;;;;;;;;;4927298;29;20032;-68
2022/07/11 04:53:08;;;;;;;0.00;0.00;;;;;;;;;;4925967;29;20520;-68
2022/07/11 04:55:37;;;;;;;0.00;0.00;;;;;;;;;;4925215;29;20023;-67
2022/07/11 04:58:02;;;;;;;0.00;0.00;;;;;;;;;;4923979;29;20077;-67
2022/07/11 05:00:28;;;;;;;0.00;0.00;;;;;;;;;;4924250;29;20063;-67
2022/07/11 05:02:55;;;;;;;0.00;0.00;;;;;;;;;;4923648;29;20414;-67
2022/07/11 05:05:21;;;;;;;0.20;0.20;;;;;;;;;;4924889;29;20361;-66
2022/07/11 05:07:46;;;;;;;0.00;0.00;;;;;;;;;;4909415;29;20023;-67
2022/07/11 05:10:12;;;;;;;0.00;0.00;;;;;;;;;;4925691;29;20016;-67
2022/07/11 05:12:37;;;;;;;0.00;0.00;;;;;;;;;;4924638;29;20028;-67
2022/07/11 05:15:03;;;;;;;0.00;0.00;;;;;;;;;;4923853;29;20082;-67
2022/07/11 05:17:28;;;;;;;0.00;0.00;;;;;;;;;;4926026;29;20034;-66
2022/07/11 05:19:53;;;;;;;0.00;0.00;;;;;;;;;;4924289;29;20090;-66
2022/07/11 05:22:18;;;;;;;0.00;0.00;;;;;;;;;;4924810;29;20036;-66
2022/07/11 05:24:44;;;;;;;0.00;0.00;;;;;;;;;;4926790;29;21701;-69
2022/07/11 05:27:09;;;;;;;0.00;0.00;;;;;;;;;;4924922;29;20532;-66
2022/07/11 05:29:34;;;;;;;0.00;0.00;;;;;;;;;;4925699;29;20019;-66
2022/07/11 05:31:59;;;;;;;0.00;0.00;;;;;;;;;;4925365;29;20028;-66
2022/07/11 05:34:25;;;;;;;0.00;0.00;;;;;;;;;;4927074;29;20034;-67
2022/07/11 05:36:51;;;;;;;0.52;0.52;;;;;;;;;;4928427;29;20532;-67
2022/07/11 05:39:16;;;;;;;0.00;0.00;;;;;;;;;;4927778;29;20039;-67
2022/07/11 05:41:41;;;;;;;0.00;0.00;;;;;;;;;;4928375;29;20032;-66
2022/07/11 05:44:06;;;;;;;0.03;0.03;;;;;;;;;;4925780;29;20723;-68
2022/07/11 05:46:32;;;;;;;0.00;0.00;;;;;;;;;;4927131;29;20027;-67
2022/07/11 05:48:57;;;;;;;0.00;0.00;;;;;;;;;;4927561;29;20498;-67
2022/07/11 05:51:22;;;;;;;0.00;0.00;;;;;;;;;;4927947;29;20033;-66
2022/07/11 05:53:47;;;;;;;0.00;0.00;;;;;;;;;;4927531;29;20028;-67
2022/07/11 05:56:12;;;;;;;0.00;0.00;;;;;;;;;;4926059;29;20062;-67
2022/07/11 05:58:38;;;;;;;0.00;0.00;;;;;;;;;;4925657;29;20114;-67
2022/07/11 06:01:03;;;;;;;0.00;0.00;;;;;;;;;;4922388;29;20291;-66
2022/07/11 06:03:28;;;;;;;0.00;0.00;;;;;;;;;;4925638;29;20275;-67
2022/07/11 06:05:54;;;;;;;0.00;0.00;;;;;;;;;;4927786;29;20027;-66
2022/07/11 06:11:03;;;;;;;0.00;0.00;;;;;;;;;;4924657;29;20087;-66
2022/07/11 06:13:29;;;;;;;0.00;0.00;;;;;;;;;;4925094;29;20024;-66
2022/07/11 06:15:55;;;;;;;0.00;0.00;;;;;;;;;;4926156;29;20513;-67
2022/07/11 06:18:20;;;;;;;0.00;0.00;;;;;;;;;;4927956;29;20030;-67
2022/07/11 06:20:45;;;;;;;0.00;0.00;;;;;;;;;;4928201;29;20043;-67
2022/07/11 06:23:11;;;;;;;0.00;0.00;;;;;;;;;;4927425;29;20405;-67
2022/07/11 06:25:37;;;;;;;0.00;0.00;;;;;;;;;;4925820;29;20027;-66
2022/07/11 06:28:03;;;;;;;0.00;0.00;;;;;;;;;;4925953;29;20071;-66
2022/07/11 06:30:31;;;;;;;0.10;0.10;;;;;;;;;;4926244;29;20075;-64
2022/07/11 06:32:57;;;;;;;0.30;0.30;;;;;;;;;;4926835;29;20035;-63
2022/07/11 06:35:22;;;;;;;0.00;0.00;;;;;;;;;;4925793;29;20039;-62
2022/07/11 06:37:50;;;;;;;0.00;0.00;;;;;;;;;;4927637;29;20027;-63
2022/07/11 06:40:17;;;;;;;0.10;0.10;;;;;;;;;;4927722;29;20035;-62
2022/07/11 06:42:42;;;;;;;0.00;0.00;;;;;;;;;;4928585;29;20150;-62
2022/07/11 06:45:07;;;;;;;0.00;0.00;;;;;;;;;;4927004;29;20126;-62
2022/07/11 06:47:33;;;;;;;1.23;1.23;;;;;;;;;;4924343;29;20020;-62
2022/07/11 06:49:58;;;;;;;0.10;0.10;;;;;;;;;;4927892;29;20023;-62
2022/07/11 06:55:09;;;;;;;0.20;0.20;;;;;;;;;;4907853;29;20044;-62
2022/07/11 06:57:34;;;;;;;0.30;0.30;;;;;;;;;;4926327;29;20082;-62
2022/07/11 06:59:59;;;;;;;0.00;0.00;;;;;;;;;;4926310;29;20425;-62
2022/07/11 07:02:29;;;;;;;0.00;0.00;;;;;;;;;;4924851;29;20376;-64
2022/07/11 07:04:55;;;;;;;0.00;0.00;;;;;;;;;;4924962;29;20206;-66
2022/07/11 07:07:21;;;;;;;0.00;0.00;;;;;;;;;;4922860;29;20805;-65
2022/07/11 07:09:46;;;;;;;0.45;0.45;;;;;;;;;;4923419;29;20038;-65
2022/07/11 07:12:11;;;;;;;0.00;0.00;;;;;;;;;;4925375;29;20118;-65
2022/07/11 07:14:36;;;;;;;0.00;0.00;;;;;;;;;;4924578;29;20429;-66
2022/07/11 07:17:02;;;;;;;0.00;0.00;;;;;;;;;;4925208;29;20838;-64
2022/07/11 07:19:27;;;;;;;0.00;0.00;;;;;;;;;;4921813;29;20031;-64
2022/07/11 07:21:52;;;;;;;0.00;0.00;;;;;;;;;;4923144;29;20044;-65
2022/07/11 07:24:17;;;;;;;0.00;0.00;;;;;;;;;;4921894;29;20027;-67
2022/07/11 07:26:42;;;;;;;0.00;0.00;;;;;;;;;;4923732;29;20473;-65
2022/07/11 07:29:08;;;;;;;0.00;0.00;;;;;;;;;;4922494;29;20260;-63
2022/07/11 07:31:33;;;;;;;0.00;0.00;;;;;;;;;;4923575;29;20055;-66
2022/07/11 07:33:58;;;;;;;0.00;0.00;;;;;;;;;;4924067;29;20023;-64
2022/07/11 07:36:24;;;;;;;0.20;0.20;;;;;;;;;;4922811;29;20044;-62
2022/07/11 07:38:49;;;;;;;0.00;0.00;;;;;;;;;;4926173;29;20031;-62
2022/07/11 07:41:15;;;;;;;2.92;2.83;;;;;;;;;;4927615;29;20047;-64
2022/07/11 07:43:43;;;;;;;1.73;0.22;;;;;;;;;;4931004;29;20469;-64
2022/07/11 07:46:09;;;;;;;0.00;0.00;;;;;;;;;;4925483;29;20032;-62
2022/07/11 07:48:34;;;;;;;0.00;0.00;;;;;;;;;;4928852;29;20028;-63
2022/07/11 07:51:00;;;;;;;0.00;0.00;;;;;;;;;;4926784;29;20051;-65
2022/07/11 07:53:25;;;;;;;0.30;0.30;;;;;;;;;;4926028;29;20563;-67
2022/07/11 07:55:50;;;;;;;0.00;0.00;;;;;;;;;;4927869;29;20031;-65
2022/07/11 07:58:15;;;;;;;0.00;0.00;;;;;;;;;;4926298;29;20038;-65
2022/07/11 08:03:25;;;;;;;0.00;0.00;;;;;;;;;;4923862;29;20255;-65
2022/07/11 08:05:50;;;;;;;0.67;0.67;;;;;;;;;;4924408;29;20722;-65
2022/07/11 08:08:15;;;;;;;0.00;0.00;;;;;;;;;;4926061;29;20268;-65
2022/07/11 08:10:40;;;;;;;0.10;0.10;;;;;;;;;;4926841;29;20502;-64
2022/07/11 08:13:05;;;;;;;0.00;0.00;;;;;;;;;;4927047;29;20275;-65
2022/07/11 08:15:31;;;;;;;0.00;0.00;;;;;;;;;;4927031;29;20047;-65
2022/07/11 08:17:56;;;;;;;0.00;0.00;;;;;;;;;;4928753;29;20287;-66
2022/07/11 08:20:21;;;;;;;0.00;0.00;;;;;;;;;;4927300;29;20341;-65
2022/07/11 08:22:46;;;;;;;0.00;0.00;;;;;;;;;;4927121;29;20055;-65
2022/07/11 08:25:12;;;;;;;0.00;0.00;;;;;;;;;;4924870;29;20779;-65
2022/07/11 08:27:37;;;;;;;0.00;0.00;;;;;;;;;;4912146;29;20024;-65
2022/07/11 08:30:04;;;;;;;0.10;0.10;;;;;;;;;;4925359;29;20046;-65
2022/07/11 08:32:29;;;;;;;0.00;0.00;;;;;;;;;;4926261;29;20049;-65
2022/07/11 08:34:55;;;;;;;0.00;0.00;;;;;;;;;;4924867;29;20052;-65
2022/07/11 08:37:21;;;;;;;0.00;0.00;;;;;;;;;;4927517;29;20087;-65
2022/07/11 08:39:46;;;;;;;0.00;0.00;;;;;;;;;;4925974;29;20075;-65
2022/07/11 08:42:12;;;;;;;0.00;0.00;;;;;;;;;;4925988;29;20185;-64
2022/07/11 08:44:37;;;;;;;0.00;0.00;;;;;;;;;;4925179;29;20031;-65
2022/07/11 08:47:03;;;;;;;0.03;0.03;;;;;;;;;;4926983;29;20110;-65
2022/07/11 08:49:28;;;;;;;0.32;0.32;;;;;;;;;;4925644;29;20032;-66
2022/07/11 08:51:54;;;;;;;0.10;0.00;;;;;;;;;;4929724;29;20027;-66
2022/07/11 08:54:19;;;;;;;0.00;0.00;;;;;;;;;;4926329;29;20035;-65
2022/07/11 08:56:49;;;;;;;0.00;0.00;;;;;;;;;;4928041;29;20035;-67
2022/07/11 08:59:17;;;;;;;0.00;0.00;;;;;;;;;;4926114;29;20024;-66
2022/07/11 09:01:44;;;;;;;0.00;0.00;;;;;;;;;;4926675;29;20032;-67
2022/07/11 09:04:10;;;;;;;0.00;0.00;;;;;;;;;;4924420;29;20039;-67
2022/07/11 09:06:39;;;;;;;0.00;0.00;;;;;;;;;;4923930;29;20027;-67
2022/07/11 09:09:04;;;;;;;0.00;0.00;;;;;;;;;;4926779;29;20591;-67
2022/07/11 09:11:49;;;;;;;0.20;0.20;;;;;;;;;;4926192;29;20028;-66
2022/07/11 09:14:23;;;;;;;0.00;0.00;;;;;;;;;;4924093;29;20028;-66
2022/07/11 09:16:53;;;;;;;0.00;0.00;;;;;;;;;;4926158;29;20140;-66
2022/07/11 09:19:22;;;;;;;0.00;0.00;;;;;;;;;;4926716;29;20482;-65
2022/07/11 09:27:45;;;;;;;0.00;0.00;;;;;;;;;;4928751;29;20034;-66
2022/07/11 09:30:18;;;;;;;0.00;0.00;;;;;;;;;;4928500;29;20043;-66
2022/07/11 09:32:52;;;;;;;0.00;0.00;;;;;;;;;;4928503;29;20422;-66
2022/07/11 09:35:17;;;;;;;0.00;0.00;;;;;;;;;;4928005;29;20497;-66
2022/07/11 09:37:43;;;;;;;0.08;0.08;;;;;;;;;;4928757;29;20019;-65
2022/07/11 09:40:12;;;;;;;0.00;0.00;;;;;;;;;;4928076;29;20024;-66
2022/07/11 09:42:50;;;;;;;0.00;0.00;;;;;;;;;;4928566;29;20035;-66
2022/07/11 09:45:16;;;;;;;0.00;0.00;;;;;;;;;;4926934;29;20544;-66
2022/07/11 09:47:49;;;;;;;0.00;0.00;;;;;;;;;;4928754;29;20103;-67
2022/07/11 09:50:27;;;;;;;0.00;0.00;;;;;;;;;;4927561;29;20488;-67
2022/07/11 09:53:03;;;;;;;0.00;0.00;;;;;;;;;;4928363;29;20047;-67
2022/07/11 09:55:29;;;;;;;0.00;0.00;;;;;;;;;;4928726;29;20036;-67
2022/07/11 09:57:54;;;;;;;0.00;0.00;;;;;;;;;;4929252;29;20079;-67
2022/07/11 10:00:20;;;;;;;0.60;0.60;;;;;;;;;;4927155;29;20034;-68
2022/07/11 10:02:45;;;;;;;0.00;0.00;;;;;;;;;;4927891;29;20095;-66
2022/07/11 10:05:11;;;;;;;0.00;0.00;;;;;;;;;;4927437;29;20028;-65
2022/07/11 10:07:36;;;;;;;0.00;0.00;;;;;;;;;;4927994;29;20448;-65
2022/07/11 10:10:03;;;;;;;0.20;0.20;;;;;;;;;;4927495;29;20035;-66
2022/07/11 10:12:32;;;;;;;0.00;0.00;;;;;;;;;;4927857;29;20717;-66
2022/07/11 10:14:59;;;;;;;0.65;0.60;;;;;;;;;;4927877;29;21611;-65
2022/07/11 10:17:34;;;;;;;0.00;0.00;;;;;;;;;;4927613;29;20443;-65
2022/07/11 10:20:18;;;;;;;0.30;0.30;;;;;;;;;;4927029;29;20397;-65
2022/07/11 10:22:45;;;;;;;0.20;0.20;;;;;;;;;;4927336;29;20221;-65
2022/07/11 10:25:29;;;;;;;0.00;0.00;;;;;;;;;;4926567;29;20824;-65
2022/07/11 10:28:17;;;;;;;1.45;0.65;;;;;;;;;;4928015;29;20488;-66
2022/07/11 10:30:45;;;;;;;0.00;0.00;;;;;;;;;;4917638;29;20036;-66
2022/07/11 10:33:10;;;;;;;0.00;0.00;;;;;;;;;;4927418;29;20090;-65
2022/07/11 10:35:35;;;;;;;0.00;0.00;;;;;;;;;;4927915;29;20028;-65
2022/07/11 10:38:04;;;;;;;0.00;0.00;;;;;;;;;;4928342;29;20106;-65
2022/07/11 10:40:52;;;;;;;0.00;0.00;;;;;;;;;;4926015;29;20122;-64
2022/07/11 10:43:20;;;;;;;0.00;0.00;;;;;;;;;;4928322;29;20055;-65
2022/07/11 10:45:55;;;;;;;0.00;0.00;;;;;;;;;;4928937;29;20397;-65
2022/07/11 10:48:20;;;;;;;0.20;0.20;;;;;;;;;;4926756;29;20019;-66
2022/07/11 10:50:46;;;;;;;0.00;0.00;;;;;;;;;;4927765;29;20507;-65
2022/07/11 10:53:20;;;;;;;0.00;0.00;;;;;;;;;;4925266;29;20493;-66
2022/07/11 10:56:04;;;;;;;0.00;0.00;;;;;;;;;;4927739;29;20039;-65
2022/07/11 10:58:31;;;;;;;0.00;0.00;;;;;;;;;;4927965;29;20039;-65
2022/07/11 11:01:12;;;;;;;0.00;0.00;;;;;;;;;;4927592;29;20039;-65
2022/07/11 11:03:38;;;;;;;0.08;0.08;;;;;;;;;;4927779;29;20548;-65
2022/07/11 11:06:03;;;;;;;0.00;0.00;;;;;;;;;;4927944;29;20028;-66
2022/07/11 11:08:32;;;;;;;0.00;0.00;;;;;;;;;;4927938;29;20024;-66
2022/07/11 11:11:01;;;;;;;0.00;0.00;;;;;;;;;;4927593;29;20028;-65
2022/07/11 11:13:26;;;;;;;;;;;;;;;;;;4931760;29;20040;-65
2022/07/11 11:15:52;;;;;;;0.00;0.00;;;;;;;;;;4914000;29;19918;-65
2022/07/11 11:18:23;;;;;;;0.00;0.00;;;;;;;;;;4930241;29;20134;-66
2022/07/11 11:21:01;;;;;;;0.00;0.00;;;;;;;;;;4930730;29;20486;-67
2022/07/11 11:23:30;;;;;;;0.00;0.00;;;;;;;;;;4929480;29;20418;-67
2022/07/11 11:25:55;;;;;;;;;;;;;;;;;;4910316;29;20023;-67
2022/07/11 11:28:21;;;;;;;0.00;0.00;;;;;;;;;;4931031;29;19914;-67
2022/07/11 11:30:53;;;;;;;0.00;0.00;;;;;;;;;;4931297;29;20041;-67
2022/07/11 11:33:18;;;;;;;0.00;0.00;;;;;;;;;;4930381;29;20079;-66
2022/07/11 11:35:45;;;;;;;0.00;0.00;;;;;;;;;;4931077;29;20035;-67
2022/07/11 11:38:10;;;;;;;0.20;0.20;;;;;;;;;;4930793;29;20054;-67
2022/07/11 11:40:36;;;;;;;0.00;0.00;;;;;;;;;;4913864;29;20028;-68
2022/07/11 11:43:01;;;;;;;0.00;0.00;;;;;;;;;;4929196;29;20039;-68
2022/07/11 11:45:26;;;;;;;0.00;0.00;;;;;;;;;;4929448;29;20059;-66
2022/07/11 11:47:51;;;;;;;0.00;0.00;;;;;;;;;;4930734;29;20027;-67
2022/07/11 11:50:17;;;;;;;0.00;0.00;;;;;;;;;;4930209;29;20119;-67
2022/07/11 11:52:42;;;;;;;0.20;0.10;;;;;;;;;;4930658;29;20066;-69
2022/07/11 11:55:09;;;;;;;0.05;0.05;;;;;;;;;;4930141;29;20086;-68
2022/07/11 11:57:34;;;;;;;0.20;0.20;;;;;;;;;;4931210;29;20027;-68
2022/07/11 11:59:59;;;;;;;0.00;0.00;;;;;;;;;;4930977;29;20047;-68
2022/07/11 12:02:28;;;;;;;0.00;0.00;;;;;;;;;;4928224;29;20114;-68
2022/07/11 12:04:54;;;;;;;0.00;0.00;;;;;;;;;;4924916;29;20084;-68
2022/07/11 12:07:24;;;;;;;0.00;0.00;;;;;;;;;;4929327;29;20039;-68
2022/07/11 12:09:51;;;;;;;0.00;0.00;;;;;;;;;;4930081;29;20087;-68
2022/07/11 12:15:04;;;;;;;0.00;0.00;;;;;;;;;;4926461;29;20441;-67
2022/07/11 12:17:29;;;;;;;0.00;0.00;;;;;;;;;;4929419;29;20095;-67
2022/07/11 12:19:54;;;;;;;0.00;0.00;;;;;;;;;;4929101;29;20031;-66
2022/07/11 12:22:20;;;;;;;0.03;0.03;;;;;;;;;;4928609;29;20283;-65
2022/07/11 12:24:49;;;;;;;0.10;0.10;;;;;;;;;;4928757;29;20366;-66
2022/07/11 12:27:18;;;;;;;0.00;0.00;;;;;;;;;;4927129;29;20015;-63
2022/07/11 12:29:49;;;;;;;;;;;;;;;;;;4926615;29;20453;-63
2022/07/11 12:32:15;;;;;;;0.10;0.10;;;;;;;;;;4927543;29;19926;-63
2022/07/11 12:34:40;;;;;;;0.00;0.00;;;;;;;;;;4930503;29;20039;-63
2022/07/11 12:37:09;;;;;;;0.00;0.00;;;;;;;;;;4929026;29;20035;-63
2022/07/11 12:39:38;;;;;;;0.13;0.13;;;;;;;;;;4926448;29;20023;-63
2022/07/11 12:42:03;;;;;;;;;;;;;;;;;;4928780;29;20043;-62
2022/07/11 12:47:15;;;;;;;0.00;0.00;;;;;;;;;;4926643;29;20086;-62
2022/07/11 12:49:44;;;;;;;0.00;0.00;;;;;;;;;;4927487;29;20113;-62
2022/07/11 12:52:14;;;;;;;0.08;0.08;;;;;;;;;;4927681;29;20043;-61
2022/07/11 12:54:39;;;;;;;0.00;0.00;;;;;;;;;;4912251;29;20121;-62
2022/07/11 12:57:06;;;;;;;2.65;2.65;;;;;;;;;;4929260;29;20031;-62
2022/07/11 12:59:32;;;;;;;0.00;0.00;;;;;;;;;;4929024;29;20039;-62
2022/07/11 13:02:03;;;;;;;0.00;0.00;;;;;;;;;;4929037;29;20032;-62
2022/07/11 13:04:32;;;;;;;0.10;0.10;;;;;;;;;;4928621;29;20028;-62
2022/07/11 13:09:41;;;;;;;0.00;0.00;;;;;;;;;;4926920;29;20094;-62
2022/07/11 13:12:06;;;;;;;0.00;0.00;;;;;;;;;;4924961;29;20031;-62
2022/07/11 13:17:15;;;;;;;0.30;0.30;;;;;;;;;;4924769;29;20054;-62
2022/07/11 13:19:40;;;;;;;0.00;0.00;;;;;;;;;;4926308;29;20031;-61
2022/07/11 13:22:05;;;;;;;0.00;0.00;;;;;;;;;;4923547;29;20063;-62
2022/07/11 13:24:31;;;;;;;0.10;0.10;;;;;;;;;;4924803;29;20338;-62
2022/07/11 13:26:57;;;;;;;0.10;0.10;;;;;;;;;;4926695;29;20273;-63
2022/07/11 13:29:22;;;;;;;0.00;0.00;;;;;;;;;;4924190;29;20023;-62
2022/07/11 13:31:47;;;;;;;0.00;0.00;;;;;;;;;;4924125;29;20066;-62
2022/07/11 13:34:15;;;;;;;0.10;0.10;;;;;;;;;;4924918;29;20042;-62
2022/07/11 13:36:40;;;;;;;0.00;0.00;;;;;;;;;;4928107;29;20036;-62
2022/07/11 13:39:05;;;;;;;0.00;0.00;;;;;;;;;;4928896;29;20028;-62
2022/07/11 13:41:30;;;;;;;0.00;0.00;;;;;;;;;;4910271;29;20066;-62
2022/07/11 13:43:55;;;;;;;0.00;0.00;;;;;;;;;;4927713;29;20379;-62
2022/07/11 13:46:21;;;;;;;0.00;0.00;;;;;;;;;;4927884;29;20295;-61
2022/07/11 13:48:46;;;;;;;0.00;0.00;;;;;;;;;;4928875;29;20397;-61
2022/07/11 13:51:11;;;;;;;0.00;0.00;;;;;;;;;;4928577;29;20715;-61
2022/07/11 13:53:37;;;;;;;0.35;0.35;;;;;;;;;;4928910;29;20032;-61
2022/07/11 13:56:07;;;;;;;0.00;0.00;;;;;;;;;;5059971;27;1285603;-62
2022/07/11 13:58:33;;;;;;;0.15;0.15;;;;;;;;;;5081007;28;20131;-62
2022/07/11 14:00:58;;;;;;;0.00;0.00;;;;;;;;;;5081987;28;20055;-63
2022/07/11 14:03:25;;;;;;;0.00;0.00;;;;;;;;;;5081321;28;20765;-60
2022/07/11 14:05:50;;;;;;;0.00;0.00;;;;;;;;;;5085110;28;20350;-61
2022/07/11 14:08:15;;;;;;;0.20;0.20;;;;;;;;;;5081190;28;20027;-63
2022/07/11 14:10:41;;;;;;;0.30;0.30;;;;;;;;;;5078295;28;20051;-63
2022/07/11 14:13:06;;;;;;;0.43;0.43;;;;;;;;;;5081441;28;20028;-63
2022/07/11 14:15:32;;;;;;;0.00;0.00;;;;;;;;;;5081462;28;20017;-64
2022/07/11 14:17:57;;;;;;;0.00;0.00;;;;;;;;;;5081674;28;20043;-64
2022/07/11 14:20:23;;;;;;;0.00;0.00;;;;;;;;;;5079723;28;20027;-64
2022/07/11 14:22:48;;;;;;;0.28;0.28;;;;;;;;;;5080166;28;20025;-64
2022/07/11 14:25:14;;;;;;;0.00;0.00;;;;;;;;;;5080009;28;20012;-65
2022/07/11 14:27:39;;;;;;;0.30;0.30;;;;;;;;;;5079413;28;20076;-65
2022/07/11 14:30:05;;;;;;;0.03;0.03;;;;;;;;;;5080825;28;20113;-65
2022/07/11 14:32:30;;;;;;;0.05;0.05;;;;;;;;;;5077973;28;20069;-64
2022/07/11 14:34:56;;;;;;;0.00;0.00;;;;;;;;;;5079722;28;20115;-64
2022/07/11 14:37:21;;;;;;;0.00;0.00;;;;;;;;;;5081075;28;20050;-63
2022/07/11 14:39:47;;;;;;;0.00;0.00;;;;;;;;;;5077644;28;20042;-64
2022/07/11 14:42:12;;;;;;;0.50;0.50;;;;;;;;;;5082204;28;20085;-63
2022/07/11 14:44:37;;;;;;;1.75;1.27;;;;;;;;;;5077802;28;20031;-63
2022/07/11 14:47:03;;;;;;;0.00;0.00;;;;;;;;;;5080335;28;20028;-63
2022/07/11 14:49:28;;;;;;;0.00;0.00;;;;;;;;;;5078683;28;21215;-63
2022/07/11 14:51:53;;;;;;;0.65;0.65;;;;;;;;;;5079630;28;20016;-63
2022/07/11 14:54:19;;;;;;;0.00;0.00;;;;;;;;;;5080579;28;20597;-63
2022/07/11 14:56:44;;;;;;;0.10;0.10;;;;;;;;;;5079131;28;20104;-63
2022/07/11 14:59:09;;;;;;;0.00;0.00;;;;;;;;;;5087641;28;20059;-63
2022/07/11 15:01:34;;;;;;;0.47;0.47;;;;;;;;;;5078278;28;20261;-64
2022/07/11 15:04:02;;;;;;;0.00;0.00;;;;;;;;;;5061567;28;20065;-63
2022/07/11 15:14:39;;;;;;;1.50;1.40;;;;;;;;;;5065623;28;20357;-63
2022/07/11 15:17:05;;;;;;;0.00;0.00;;;;;;;;;;5065651;28;20013;-63